Dickinson's Hourly Summary for Friday, March 17, 2017
Hour Temp
(f)
RH
(%)
Solar Rad.
(MJ/m2)
Rainfall
(in)
Wind
(mph)
3/17/2017 12:00 AM 67 85 0 0 5.46
3/17/2017 1:00 AM 67 85 0 0 6.04
3/17/2017 2:00 AM 67 85 0 0 6.18
3/17/2017 3:00 AM 67 85 0 0 5.67
3/17/2017 4:00 AM 67 83 0 0 5.97
3/17/2017 5:00 AM 67 83 0 0 5.2
3/17/2017 6:00 AM 66 83 0 0 3.89
3/17/2017 7:00 AM 66 87 0 0 2.81
3/17/2017 8:00 AM 65 90 0.04 0 1.39
3/17/2017 9:00 AM 67 81 0.34 0 2.47
3/17/2017 10:00 AM 71 70 1.34 0 6.34
3/17/2017 11:00 AM 73 63 2.11 0 8.13
3/17/2017 12:00 PM 74 59 2.42 0 8.25
3/17/2017 1:00 PM 73 62 1.5 0 7.45
3/17/2017 2:00 PM 75 61 2.9 0 8.34
3/17/2017 3:00 PM 74 61 1.93 0 8.18
3/17/2017 4:00 PM 74 61 1.84 0 8.28
3/17/2017 5:00 PM 74 60 1.61 0 8.22
3/17/2017 6:00 PM 73 62 0.95 0 6.49
3/17/2017 7:00 PM 72 67 0.31 0 5.62
3/17/2017 8:00 PM 70 70 0.03 0 4.08
3/17/2017 9:00 PM 68 78 0 0 2.78
3/17/2017 10:00 PM 67 84 0 0 2.87
3/17/2017 11:00 PM 67 88 0 0 2.81
Data Summary 69 74 17.32 0.00 5.54